Latest Weather Observations for Armidale Airport

IDN60801

Issued at 3:22 pm EST Thursday 28 May 2020 (issued every 10 minutes, with the page automatically refreshed every 10 minutes)

About weather observations | Map of weather stations | Latest weather observations for NSW | Other Formats
Station Details ID: 056238 Name: ARMIDALE AIRPORT AWS Lat: -30.53 Lon: 151.62 Height: 1079.0 m
Data from the previous 72 hours. | See also: Recent months at Armidale Airport
Date/Time
EST
Temp
°C
App
Temp
°C
Dew
Point
°C
Rel
Hum
%
Delta-T
°C
Wind Press
QNH
hPa
Press
MSL
hPa
Rain since
9am
mm
Dir  Spd
km/h
Gust
km/h
Spd
kts
Gust
kts
28/03:00pm 15.6 11.7 8.6 63 3.8 WSW 19 24 10 13 1021.1 1019.7 0.0
28/02:30pm 15.9 13.2 8.9 63 3.8 WSW 13 22 7 12 1021.1 1019.7 0.0
28/02:00pm 15.7 11.7 8.4 62 3.9 WNW 19 24 10 13 1021.1 1019.7 0.0
28/01:30pm 15.9 11.6 7.9 59 4.3 WNW 20 26 11 14 1021.3 1019.8 0.0
28/01:00pm 15.9 12.1 8.9 63 3.8 WNW 19 30 10 16 1021.5 1020.0 0.0
28/12:30pm 15.7 11.2 8.7 63 3.8 WNW 22 32 12 17 1021.8 1020.4 0.0
28/12:00pm 15.6 11.9 9.3 66 3.4 WSW 19 24 10 13 1022.1 1020.7 0.0
28/11:30am 15.4 11.7 9.5 68 3.2 WSW 19 24 10 13 1022.4 1020.9 0.0
28/11:00am 14.8 11.4 9.0 68 3.1 WNW 17 24 9 13 1022.8 1021.4 0.0
28/10:30am 14.3 10.5 8.9 70 2.9 WNW 19 26 10 14 1023.2 1021.8 0.0
28/10:00am 13.6 10.7 9.6 77 2.2 W 15 24 8 13 1023.5 1022.1 0.0
28/09:30am 12.8 10.4 10.2 84 1.4 WNW 13 15 7 8 1023.6 1022.2 0.0
28/09:00am 11.7 10.7 10.9 95 0.4 WNW 7 11 4 6 1023.4 1022.0 0.0
28/08:30am 10.9 9.9 10.9 100 0.0 WNW 7 11 4 6 1023.6 1022.2 0.0
28/08:00am 9.8 9.8 9.8 100 0.0 CALM 0 0 0 0 1023.2 1021.8 0.0
28/07:34am 8.7 8.4 8.6 99 0.1 CALM 0 0 0 0 1022.6 1021.2 0.0
28/07:30am 8.0 7.5 7.9 99 0.1 CALM 0 0 0 0 1022.6 1021.2 0.0
28/07:00am 6.8 6.0 6.7 99 0.0 CALM 0 0 0 0 1022.8 1021.4 0.0
28/06:30am 6.0 4.3 5.9 99 0.0 NNE 4 6 2 3 1022.5 1021.1 0.0
28/06:00am 6.2 5.3 6.1 99 0.0 CALM 0 0 0 0 1022.0 1020.6 0.0
28/05:54am 6.0 5.1 5.9 99 0.0 CALM 0 0 0 0 1021.9 1020.5 0.0
28/05:30am 6.7 5.5 6.6 99 0.0 NE 2 6 1 3 1021.6 1020.1 0.0
28/05:00am 6.5 4.5 6.4 99 0.0 NNE 6 6 3 3 1021.5 1020.0 0.0
28/04:30am 6.3 4.3 6.2 99 0.0 NNE 6 7 3 4 1021.5 1020.0 0.0
28/04:22am 5.9 3.8 5.8 99 0.0 NNE 6 7 3 4 1021.5 1020.0 0.0
28/04:00am 4.9 2.4 4.8 99 0.0 NE 7 9 4 5 1021.4 1019.9 0.0
28/03:55am 4.2 1.6 4.1 99 0.0 NE 7 9 4 5 1021.5 1020.0 0.0
28/03:30am 4.7 1.8 4.6 99 0.0 NE 9 11 5 6 1021.6 1020.1 0.0
28/03:00am 6.9 6.2 6.8 99 0.0 CALM 0 0 0 0 1021.5 1020.0 0.0
28/02:30am 6.7 5.9 6.6 99 0.0 CALM 0 0 0 0 1021.6 1020.1 0.0
28/02:27am 6.5 5.7 6.4 99 0.0 CALM 0 0 0 0 1021.5 1020.0 0.0
28/02:20am 7.2 6.5 7.1 99 0.0 CALM 0 0 0 0 1021.5 1020.0 0.0
28/02:02am 6.8 6.0 6.7 99 0.0 CALM 0 0 0 0 1021.4 1019.9 0.0
28/02:00am 6.7 5.9 6.6 99 0.0 CALM 0 0 0 0 1021.4 1019.9 0.0
28/01:36am 6.7 5.9 6.6 99 0.0 CALM 0 0 0 0 1021.7 1020.3 0.0
28/01:30am 6.6 5.8 6.5 99 0.0 CALM 0 0 0 0 1021.6 1020.1 0.0
28/01:14am 6.1 5.2 6.0 99 0.0 CALM 0 0 0 0 1021.6 1020.1 0.0
28/01:09am 6.2 5.3 6.1 99 0.0 CALM 0 0 0 0 1021.5 1020.0 0.0
28/01:00am 5.9 4.9 5.8 99 0.0 CALM 0 0 0 0 1021.5 1020.0 0.0
28/12:43am 6.6 5.8 6.5 99 0.0 CALM 0 0 0 0 1021.5 1020.0 0.0
28/12:30am 6.9 6.2 6.8 99 0.0 CALM 0 0 0 0 1021.6 1020.1 0.0
28/12:00am 7.0 6.2 6.7 98 0.1 CALM 0 0 0 0 1021.9 1020.5 0.0
 
Date/Time
EST
Temp
°C
App
Temp
°C
Dew
Point
°C
Rel
Hum
%
Delta-T
°C
Wind Press
QNH
hPa
Press
MSL
hPa
Rain since
9am
mm
Dir  Spd
km/h
Gust
km/h
Spd
kts
Gust
kts
27/11:30pm 8.8 8.5 8.7 99 0.1 CALM 0 0 0 0 1022.0 1020.6 0.0
27/11:00pm 8.3 7.9 8.2 99 0.1 CALM 0 0 0 0 1022.1 1020.7 0.0
27/10:30pm 7.7 7.1 7.6 99 0.1 CALM 0 0 0 0 1022.2 1020.8 0.0
27/10:00pm 7.7 6.0 7.6 99 0.0 NNE 6 6 3 3 1022.1 1020.7 0.0
27/09:30pm 8.2 6.6 8.1 99 0.1 NE 6 7 3 4 1022.2 1020.8 0.0
27/09:00pm 8.1 7.5 7.5 96 0.3 CALM 0 2 0 1 1022.5 1021.1 0.0
27/08:30pm 8.3 7.2 7.1 92 0.6 S 2 6 1 3 1022.1 1020.7 0.0
27/08:00pm 9.4 7.7 8.2 92 0.6 SW 7 9 4 5 1021.9 1020.5 0.0
27/07:30pm 9.5 7.3 7.9 90 0.8 WSW 9 11 5 6 1021.9 1020.5 0.0
27/07:00pm 9.5 9.1 8.4 93 0.6 CALM 0 4 0 2 1021.8 1020.4 0.0
27/06:30pm 9.9 7.7 7.8 87 1.1 W 9 13 5 7 1021.6 1020.1 0.0
27/06:00pm 11.1 8.4 8.8 86 1.2 WSW 13 15 7 8 1021.5 1020.0 0.0
27/05:30pm 12.0 10.0 8.8 81 1.7 W 9 9 5 5 1021.3 1019.8 0.0
27/05:00pm 12.1 10.2 8.9 81 1.7 WNW 9 11 5 6 1020.9 1019.5 0.0
27/04:30pm 13.1 11.0 8.4 73 2.5 NW 9 11 5 6 1020.4 1018.9 0.0
27/04:00pm 16.2 14.1 9.6 65 3.6 WNW 11 15 6 8 1020.1 1018.7 0.0
27/03:30pm 16.8 14.6 9.5 62 4.0 WNW 11 17 6 9 1020.3 1018.8 0.0
27/03:00pm 16.6 13.1 8.8 60 4.2 WNW 17 20 9 11 1020.3 1018.8 0.0
27/02:30pm 16.7 13.5 8.4 58 4.5 W 15 20 8 11 1020.4 1018.9 0.0
27/02:00pm 16.8 13.4 9.2 61 4.2 W 17 26 9 14 1020.6 1019.1 0.0
27/01:30pm 16.3 12.9 9.0 62 4.0 WNW 17 22 9 12 1020.8 1019.3 0.0
27/01:00pm 15.7 12.3 9.1 65 3.6 WNW 17 22 9 12 1021.1 1019.7 0.0
27/12:30pm 17.2 15.7 10.6 65 3.7 W 9 19 5 10 1021.5 1020.0 0.0
27/12:00pm 15.3 14.0 10.1 71 2.9 S 7 15 4 8 1021.8 1020.4 0.0
27/11:30am 14.7 13.2 10.5 76 2.3 E 9 13 5 7 1022.2 1020.8 0.0
27/11:00am 13.9 12.8 10.5 80 1.9 NE 7 13 4 7 1022.6 1021.2 0.0
27/10:30am 12.9 10.6 10.3 84 1.4 NE 13 19 7 10 1022.7 1021.3 0.0
27/10:04am 12.0 9.6 10.1 88 1.0 NE 13 17 7 9 1022.8 1021.4 0.0
27/10:00am 12.1 9.8 10.5 90 0.9 ENE 13 17 7 9 1022.7 1021.3 0.0
27/09:30am 10.3 7.3 9.4 94 0.5 ENE 15 19 8 10 1022.8 1021.4 0.0
27/09:00am 9.2 6.5 9.1 99 0.1 ENE 13 17 7 9 1022.6 1021.2 0.0
27/08:30am 9.2 6.5 9.1 99 0.1 E 13 17 7 9 1022.7 1021.3 0.0
27/08:00am 8.9 5.8 8.8 99 0.1 E 15 17 8 9 1022.7 1021.3 0.0
27/07:30am 9.0 6.3 8.9 99 0.1 ENE 13 15 7 8 1022.5 1021.1 0.0
27/07:00am 8.8 5.7 8.7 99 0.1 E 15 20 8 11 1022.5 1021.1 0.0
27/06:30am 8.9 5.8 8.8 99 0.1 ESE 15 20 8 11 1022.2 1020.8 0.0
27/06:00am 9.0 6.3 8.9 99 0.1 E 13 15 7 8 1021.7 1020.3 0.0
27/05:30am 8.8 6.8 8.7 99 0.1 E 9 13 5 7 1021.8 1020.4 0.0
27/05:00am 9.1 7.2 9.0 99 0.1 ESE 9 13 5 7 1021.6 1020.1 0.0
27/04:30am 9.0 6.3 8.9 99 0.1 E 13 17 7 9 1021.3 1019.8 0.0
27/04:00am 9.2 6.9 9.1 99 0.1 ESE 11 17 6 9 1021.4 1019.9 0.0
27/03:30am 9.3 6.7 9.2 99 0.1 ESE 13 19 7 10 1021.5 1020.0 0.0
27/03:00am 9.2 7.3 9.1 99 0.1 ESE 9 11 5 6 1021.7 1020.3 0.0
27/02:30am 9.4 6.7 9.1 98 0.2 SE 13 19 7 10 1021.9 1020.5 0.0
27/02:00am 9.4 8.1 9.3 99 0.1 SSE 6 9 3 5 1022.2 1020.8 0.0
27/01:30am 9.3 8.3 9.0 98 0.2 SSE 4 7 2 4 1022.1 1020.7 0.0
27/01:00am 9.4 7.9 9.1 98 0.2 SSE 7 9 4 5 1022.0 1020.6 0.0
27/12:30am 9.4 7.5 8.9 97 0.3 SSE 9 11 5 6 1022.0 1020.6 0.0
27/12:00am 9.5 8.1 9.0 97 0.3 SSE 6 9 3 5 1022.4 1020.9 0.0
 
Date/Time
EST
Temp
°C
App
Temp
°C
Dew
Point
°C
Rel
Hum
%
Delta-T
°C
Wind Press
QNH
hPa
Press
MSL
hPa
Rain since
9am
mm
Dir  Spd
km/h
Gust
km/h
Spd
kts
Gust
kts
26/11:38pm 9.5 8.0 9.2 98 0.2 SSE 7 11 4 6 1022.2 1020.8 0.0
26/11:30pm 9.5 8.0 9.2 98 0.2 SSE 7 9 4 5 1022.4 1020.9 0.0
26/11:00pm 9.6 7.4 9.3 98 0.2 SSE 11 15 6 8 1022.4 1020.9 0.0
26/10:46pm 9.6 7.8 9.3 98 0.2 S 9 11 5 6 1022.7 1021.3 0.0
26/10:30pm 9.8 8.5 9.3 97 0.3 S 6 9 3 5 1022.6 1021.2 0.0
26/10:00pm 9.7 8.4 9.1 96 0.3 SSE 6 7 3 4 1022.5 1021.1 0.0
26/09:54pm 9.9 8.6 9.3 96 0.3 SSE 6 7 3 4 1022.5 1021.1 0.0
26/09:30pm 10.1 8.6 9.3 95 0.4 S 7 11 4 6 1022.4 1020.9 0.0
26/09:00pm 10.2 8.7 9.3 94 0.5 S 7 11 4 6 1022.2 1020.8 0.0
26/08:30pm 10.3 8.8 9.2 93 0.6 S 7 9 4 5 1022.2 1020.8 0.0
26/08:00pm 10.5 8.6 9.1 91 0.7 SSE 9 13 5 7 1022.1 1020.7 0.0
26/07:30pm 10.6 7.6 9.2 91 0.7 SSE 15 20 8 11 1021.9 1020.5 0.0
26/07:00pm 10.4 8.3 9.8 96 0.3 S 11 15 6 8 1021.6 1020.1 0.0
26/06:30pm 10.3 8.6 9.8 97 0.3 S 9 13 5 7 1021.3 1019.8 0.0
26/06:00pm 10.4 8.7 9.9 97 0.3 SSW 9 11 5 6 1021.1 1019.7 0.0
26/05:30pm 10.8 8.5 10.3 97 0.3 S 13 17 7 9 1021.0 1019.6 0.0
26/05:00pm 10.8 8.4 10.2 96 0.3 S 13 22 7 12 1020.7 1019.2 0.0
26/04:30pm 11.4 9.0 10.1 92 0.7 S 13 19 7 10 1020.6 1019.1 0.0
26/04:00pm 11.5 8.8 10.4 93 0.6 S 15 20 8 11 1020.1 1018.7 0.0
26/03:30pm 12.7 9.4 9.7 82 1.6 SSE 17 24 9 13 1019.7 1018.2 0.0
26/03:00pm 13.1 9.9 10.1 82 1.6 S 17 24 9 13 1019.4 1017.9 0.0
26/02:30pm 13.3 9.5 9.9 80 1.9 S 20 28 11 15 1019.4 1017.9 0.0
26/02:00pm 13.5 9.2 9.4 76 2.2 SSE 22 32 12 17 1019.5 1018.0 0.0
26/01:30pm 13.5 9.6 9.4 76 2.2 SSE 20 28 11 15 1019.5 1018.0 0.0
26/01:00pm 13.8 10.1 9.5 75 2.3 S 19 28 10 15 1019.5 1018.0 0.0
26/12:30pm 14.0 10.1 9.4 74 2.5 SSE 20 32 11 17 1019.8 1018.3 0.0
26/12:00pm 13.7 9.7 9.2 74 2.4 SSE 20 32 11 17 1020.3 1018.8 0.0
26/11:30am 13.4 10.3 8.7 73 2.5 SE 15 20 8 11 1020.4 1018.9 0.0
26/11:00am 13.0 9.0 8.1 72 2.6 SE 19 26 10 14 1020.9 1019.5 0.0
26/10:30am 12.0 6.7 6.7 70 2.7 SE 24 33 13 18 1021.0 1019.6 0.0
26/10:00am 12.1 8.2 8.6 79 1.8 SSE 19 28 10 15 1020.9 1019.5 0.0
26/09:43am 10.9 7.5 9.2 89 0.9 SSE 17 26 9 14 1021.1 1019.7 0.0
26/09:30am 10.2 7.2 9.1 93 0.6 SSE 15 24 8 13 1020.9 1019.5 0.0
26/09:19am 10.3 7.7 9.5 95 0.4 SSE 13 20 7 11 1020.7 1019.2 0.0
26/09:00am 9.8 7.7 9.7 99 0.1 SSE 11 15 6 8 1020.7 1019.2 0.6
26/08:30am 9.2 7.7 9.1 99 0.1 S 7 11 4 6 1020.4 1018.9 0.6
26/08:00am 8.2 6.6 8.1 99 0.1 SSW 6 9 3 5 1020.4 1018.9 0.6
26/07:55am 8.1 6.5 8.0 99 0.1 SW 6 7 3 4 1020.5 1019.0 0.6
26/07:39am 7.7 7.1 7.6 99 0.1 CALM 0 0 0 0 1020.3 1018.8 0.6
26/07:30am 7.4 6.8 7.3 99 0.0 CALM 0 0 0 0 1020.3 1018.8 0.6
26/07:00am 5.4 4.3 5.3 99 0.0 CALM 0 0 0 0 1020.3 1018.8 0.6
26/06:46am 6.7 5.9 6.6 99 0.0 CALM 0 0 0 0 1020.1 1018.7 0.6
26/06:30am 7.0 5.1 6.9 99 0.0 SSW 6 9 3 5 1020.0 1018.6 0.6
26/06:28am 7.1 5.1 7.0 99 0.0 SSW 7 11 4 6 1019.9 1018.4 0.6
26/06:18am 7.5 5.6 7.4 99 0.0 SSW 7 11 4 6 1019.8 1018.3 0.6
26/06:06am 7.3 5.3 7.2 99 0.0 WSW 7 9 4 5 1019.6 1018.1 0.6
26/06:00am 7.3 5.9 7.2 99 0.0 SW 4 9 2 5 1019.6 1018.1 0.6
26/05:44am 7.2 5.4 7.1 99 0.0 W 6 7 3 4 1019.3 1017.8 0.6
26/05:30am 7.0 5.0 6.9 99 0.0 W 7 9 4 5 1019.1 1017.6 0.6
26/05:17am 7.5 5.6 7.4 99 0.0 WSW 7 9 4 5 1019.0 1017.5 0.6
26/05:00am 7.4 5.6 7.3 99 0.0 W 6 7 3 4 1018.9 1017.4 0.6
26/04:30am 7.0 6.3 6.9 99 0.0 CALM 0 0 0 0 1018.7 1017.2 0.6
26/04:16am 6.8 5.3 6.7 99 0.0 WSW 4 7 2 4 1018.7 1017.2 0.6
26/04:00am 7.2 4.8 7.1 99 0.0 WSW 9 9 5 5 1018.7 1017.2 0.6
26/03:53am 7.3 5.3 7.2 99 0.0 WSW 7 9 4 5 1018.7 1017.2 0.6
26/03:30am 7.7 5.4 7.6 99 0.1 WSW 9 11 5 6 1018.8 1017.3 0.6
26/03:00am 7.8 5.9 7.7 99 0.1 W 7 9 4 5 1018.8 1017.3 0.6
26/02:30am 7.8 5.2 7.7 99 0.1 WSW 11 11 6 6 1018.8 1017.3 0.4
26/02:00am 7.8 4.8 7.7 99 0.1 SW 13 15 7 8 1018.8 1017.3 0.4
26/01:30am 7.8 5.2 7.7 99 0.1 WSW 11 13 6 7 1018.9 1017.4 0.4
26/01:00am 7.7 5.1 7.6 99 0.1 WSW 11 13 6 7 1018.9 1017.4 0.4
26/12:30am 7.7 4.7 7.6 99 0.1 WSW 13 15 7 8 1019.0 1017.5 0.4
26/12:00am 7.7 4.7 7.6 99 0.1 SW 13 17 7 9 1019.0 1017.5 0.4
 
Date/Time
EST
Temp
°C
App
Temp
°C
Dew
Point
°C
Rel
Hum
%
Delta-T
°C
Wind Press
QNH
hPa
Press
MSL
hPa
Rain since
9am
mm
Dir  Spd
km/h
Gust
km/h
Spd
kts
Gust
kts
25/11:30pm 7.6 4.6 7.5 99 0.0 WSW 13 17 7 9 1019.1 1017.6 0.4
25/11:14pm 7.5 4.4 7.4 99 0.0 WSW 13 15 7 8 1019.1 1017.6 0.4
25/11:00pm 7.5 4.4 7.4 99 0.0 WSW 13 15 7 8 1019.1 1017.6 0.4
25/10:30pm 7.4 4.7 7.3 99 0.0 W 11 15 6 8 1019.1 1017.6 0.4
25/10:00pm 7.4 4.7 7.3 99 0.0 W 11 15 6 8 1019.1 1017.6 0.4
25/09:30pm 7.4 3.9 7.3 99 0.0 W 15 17 8 9 1019.1 1017.6 0.4
25/09:17pm 7.4 4.3 7.3 99 0.0 W 13 17 7 9 1019.1 1017.6 0.4
25/09:03pm 7.4 4.3 7.3 99 0.0 W 13 17 7 9 1019.3 1017.8 0.4
25/09:00pm 7.4 4.3 7.3 99 0.0 W 13 17 7 9 1019.3 1017.8 0.4
25/08:37pm 7.4 3.9 7.3 99 0.0 W 15 19 8 10 1019.1 1017.6 0.0
25/08:30pm 7.5 4.0 7.4 99 0.0 W 15 19 8 10 1019.1 1017.6 0.0
25/08:00pm 7.5 4.4 7.4 99 0.0 WSW 13 15 7 8 1019.0 1017.5 0.0
25/07:43pm 7.0 4.6 6.9 99 0.0 W 9 11 5 6 1019.0 1017.5 0.0
25/07:30pm 7.0 4.6 6.9 99 0.0 W 9 11 5 6 1018.9 1017.4 0.0
25/07:11pm 7.5 5.2 7.4 99 0.0 WSW 9 13 5 7 1018.8 1017.3 0.0
25/07:00pm 7.4 4.7 7.3 99 0.0 WSW 11 13 6 7 1018.7 1017.2 0.0
25/06:48pm 7.5 4.4 7.4 99 0.0 WSW 13 17 7 9 1018.6 1017.1 0.0
25/06:35pm 7.3 3.8 7.2 99 0.0 WSW 15 19 8 10 1018.5 1017.0 0.0
25/06:30pm 7.5 3.7 7.4 99 0.0 WSW 17 20 9 11 1018.5 1017.0 0.0
25/06:00pm 7.2 3.3 6.9 98 0.1 WSW 17 20 9 11 1018.0 1016.5 0.0
25/05:30pm 7.8 3.6 7.4 97 0.2 SW 19 22 10 12 1017.8 1016.3 0.0
25/05:29pm 7.7 3.5 7.3 97 0.2 SW 19 22 10 12 1017.8 1016.3 0.0
25/05:00pm 8.1 3.8 7.0 93 0.5 SW 19 22 10 12 1017.5 1015.9 0.0
25/04:30pm 9.9 5.1 7.5 85 1.2 SSW 22 28 12 15 1017.3 1015.7 0.0
25/04:00pm 10.9 5.8 7.8 81 1.6 SW 24 32 13 17 1016.9 1015.4 0.0
25/03:30pm 12.3 8.0 8.0 75 2.2 WSW 20 26 11 14 1016.7 1015.1 0.0

Other formats

Comma delimited format used in spreadsheet applications
http://www.bom.gov.au/fwo/IDN60801/IDN60801.95773.axf

JavaScript Object Notation format (JSON) in row-major order
http://www.bom.gov.au/fwo/IDN60801/IDN60801.95773.json

Data quality

Most of these data are generated automatically and are frequently updated. Quality checks on data are not normally performed. It is possible for incorrect values to appear. Refer to information at About Latest Weather Observations and please check the disclaimer before using these data.